createdAt,value
2019-03-09T00:00:34.878Z,7.29
2019-03-09T00:01:15.440Z,7.24
2019-03-09T00:01:56.018Z,7.25
2019-03-09T00:02:36.605Z,7.17
2019-03-09T00:03:17.293Z,7.2
2019-03-09T00:03:57.850Z,7.23
2019-03-09T00:04:38.412Z,7.21
2019-03-09T00:05:19.190Z,7.2
2019-03-09T00:05:59.633Z,7.23
2019-03-09T00:06:40.260Z,7.31
2019-03-09T00:07:21.085Z,7.2
2019-03-09T00:08:02.783Z,7.28
2019-03-09T00:08:43.387Z,7.31
2019-03-09T00:09:23.949Z,7.23
2019-03-09T00:10:04.501Z,7.2
2019-03-09T00:10:45.107Z,7.31
2019-03-09T00:11:25.657Z,7.28
2019-03-09T00:12:06.325Z,7.31
2019-03-09T00:12:46.883Z,7.23
2019-03-09T00:13:27.629Z,7.33
2019-03-09T00:14:08.196Z,7.36
2019-03-09T00:14:48.931Z,7.35
2019-03-09T00:15:29.572Z,7.33
2019-03-09T00:16:10.694Z,7.33
2019-03-09T00:16:51.453Z,7.36
2019-03-09T00:17:32.258Z,7.32
2019-03-09T00:18:13.788Z,7.42
2019-03-09T00:18:53.835Z,7.42
2019-03-09T00:19:34.387Z,7.43
2019-03-09T00:20:14.931Z,7.4
2019-03-09T00:20:55.486Z,7.38
2019-03-09T00:21:36.031Z,7.36
2019-03-09T00:22:16.760Z,7.4
2019-03-09T00:22:57.327Z,7.33
2019-03-09T00:23:37.921Z,7.35
2019-03-09T00:24:18.472Z,7.42
2019-03-09T00:24:59.044Z,7.31
2019-03-09T00:25:39.702Z,7.33
2019-03-09T00:26:20.175Z,7.33
2019-03-09T00:27:00.748Z,7.33
2019-03-09T00:27:41.310Z,7.39
2019-03-09T00:28:22.246Z,7.29
2019-03-09T00:29:02.805Z,7.36
2019-03-09T00:29:43.472Z,7.36
2019-03-09T00:30:24.008Z,7.32
2019-03-09T00:31:05.227Z,7.32
2019-03-09T00:31:45.760Z,7.33
2019-03-09T00:32:26.372Z,7.43
2019-03-09T00:33:06.961Z,7.43
2019-03-09T00:33:47.727Z,7.35
2019-03-09T00:34:28.210Z,7.43
2019-03-09T00:35:08.801Z,7.35
2019-03-09T00:35:49.538Z,7.35
2019-03-09T00:36:30.257Z,7.33
2019-03-09T00:37:11.031Z,7.33
2019-03-09T00:37:51.770Z,7.36
2019-03-09T00:38:32.587Z,7.25
2019-03-09T00:39:13.303Z,7.33
2019-03-09T00:39:53.856Z,7.25
2019-03-09T00:40:35.707Z,7.29
2019-03-09T00:41:16.278Z,7.25
2019-03-09T00:41:57.185Z,7.23
2019-03-09T00:42:37.797Z,7.25
2019-03-09T00:43:18.441Z,7.25
2019-03-09T00:43:59.004Z,7.32
2019-03-09T00:44:40.250Z,7.18
2019-03-09T00:45:21.453Z,7.25
2019-03-09T00:46:02.040Z,7.17
2019-03-09T00:46:43.601Z,7.23
2019-03-09T00:47:24.128Z,7.21
2019-03-09T00:48:04.734Z,7.18
2019-03-09T00:48:45.362Z,7.25
2019-03-09T00:49:25.918Z,7.18
2019-03-09T00:50:06.479Z,7.21
2019-03-09T00:50:47.275Z,7.2
2019-03-09T00:51:27.887Z,7.24
2019-03-09T00:52:08.640Z,7.18
2019-03-09T00:52:49.231Z,7.14
2019-03-09T00:53:29.852Z,7.13
2019-03-09T00:54:10.405Z,7.13
2019-03-09T00:54:51.943Z,7.14
2019-03-09T00:55:32.472Z,7.14
2019-03-09T00:56:13.085Z,7.18
2019-03-09T00:56:53.671Z,7.15
2019-03-09T00:57:34.549Z,7.1
2019-03-09T00:58:15.096Z,7.15
2019-03-09T00:58:55.935Z,7.14
2019-03-09T00:59:36.518Z,7.14
2019-03-09T01:00:17.205Z,7.14
2019-03-09T01:00:57.798Z,7.07
2019-03-09T01:01:38.354Z,7.03
2019-03-09T01:02:19.058Z,7.03
2019-03-09T01:02:59.649Z,7.1
2019-03-09T01:03:40.464Z,7.1
2019-03-09T01:04:20.951Z,7.1
2019-03-09T01:05:01.570Z,7.05
2019-03-09T01:05:42.186Z,7.14
2019-03-09T01:06:23.007Z,7.06
2019-03-09T01:07:03.568Z,7.06
2019-03-09T01:07:44.123Z,7.07
2019-03-09T01:08:24.702Z,7.06
2019-03-09T01:09:05.521Z,7.06
2019-03-09T01:09:46.088Z,7.07
2019-03-09T01:10:26.950Z,7.06
2019-03-09T01:11:07.528Z,7.05
2019-03-09T01:11:48.285Z,7
2019-03-09T01:12:29.015Z,7.07
2019-03-09T01:13:09.509Z,7.06
2019-03-09T01:13:50.097Z,7.02
2019-03-09T01:14:30.658Z,7.13
2019-03-09T01:15:11.230Z,7.07
2019-03-09T01:15:51.816Z,7.13
2019-03-09T01:16:32.402Z,7.05
2019-03-09T01:17:13.482Z,7.03
2019-03-09T01:17:54.097Z,7.02
2019-03-09T01:18:34.673Z,7.11
2019-03-09T01:19:15.280Z,7.14
2019-03-09T01:19:55.963Z,7.13
2019-03-09T01:20:36.577Z,7.13
2019-03-09T01:21:17.160Z,7.17
2019-03-09T01:21:57.718Z,7.14
2019-03-09T01:22:38.304Z,7.18
2019-03-09T01:23:18.929Z,7.18
2019-03-09T01:23:59.479Z,7.18
2019-03-09T01:24:40.044Z,7.23
2019-03-09T01:25:20.595Z,7.15
2019-03-09T01:26:01.174Z,7.24
2019-03-09T01:26:41.781Z,7.13
2019-03-09T01:27:22.369Z,7.13
2019-03-09T01:28:02.897Z,7.17
2019-03-09T01:28:43.452Z,7.21
2019-03-09T01:29:24.027Z,7.15
2019-03-09T01:30:04.608Z,7.1
2019-03-09T01:30:45.158Z,7.15
2019-03-09T01:31:25.741Z,7.07
2019-03-09T01:32:06.305Z,7.13
2019-03-09T01:32:46.852Z,7.02
2019-03-09T01:33:27.423Z,7.02
2019-03-09T01:34:08.015Z,7.05
2019-03-09T01:34:48.634Z,7.05
2019-03-09T01:35:29.287Z,7.1
2019-03-09T01:36:09.872Z,7.06
2019-03-09T01:36:50.424Z,7.06
2019-03-09T01:37:30.993Z,7.1
2019-03-09T01:38:11.621Z,7.11
2019-03-09T01:38:52.210Z,7.15
2019-03-09T01:39:32.780Z,7.15
2019-03-09T01:40:13.321Z,7.15
2019-03-09T01:40:53.898Z,7.13
2019-03-09T01:41:34.510Z,7.15
2019-03-09T01:42:15.072Z,7.15
2019-03-09T01:42:55.638Z,7.18
2019-03-09T01:43:36.226Z,7.15
2019-03-09T01:44:16.831Z,7.17
2019-03-09T01:44:57.446Z,7.21
2019-03-09T01:45:38.013Z,7.18
2019-03-09T01:46:18.603Z,7.17
2019-03-09T01:46:59.204Z,7.18
2019-03-09T01:47:39.780Z,7.18
2019-03-09T01:48:20.326Z,7.14
2019-03-09T01:49:00.875Z,7.14
2019-03-09T01:49:41.448Z,7.2
2019-03-09T01:50:21.991Z,7.15
2019-03-09T01:51:02.564Z,7.15
2019-03-09T01:51:43.163Z,7.17
2019-03-09T01:52:23.698Z,7.15
2019-03-09T01:53:04.285Z,7.15
2019-03-09T01:53:44.868Z,7.15
2019-03-09T01:54:25.424Z,7.24
2019-03-09T01:55:06.032Z,7.2
2019-03-09T01:55:46.596Z,7.14
2019-03-09T01:56:27.163Z,7.21
2019-03-09T01:57:07.733Z,7.18
2019-03-09T01:57:48.292Z,7.23
2019-03-09T01:58:28.838Z,7.15
2019-03-09T01:59:09.387Z,7.2
2019-03-09T01:59:49.976Z,7.23
2019-03-09T02:00:30.551Z,7.17
2019-03-09T02:01:11.111Z,7.23
2019-03-09T02:01:51.683Z,7.15
2019-03-09T02:02:32.265Z,7.14
2019-03-09T02:03:12.849Z,7.15
2019-03-09T02:03:53.401Z,7.14
2019-03-09T02:04:33.960Z,7.21
2019-03-09T02:05:14.537Z,7.17
2019-03-09T02:05:55.115Z,7.15
2019-03-09T02:06:35.666Z,7.15
2019-03-09T02:07:17.018Z,7.21
2019-03-09T02:07:57.587Z,7.15
2019-03-09T02:08:38.169Z,7.13
2019-03-09T02:09:18.743Z,7.14
2019-03-09T02:09:59.281Z,7.17
2019-03-09T02:10:39.838Z,7.17
2019-03-09T02:11:20.387Z,7.15
2019-03-09T02:12:01.011Z,7.15
2019-03-09T02:12:41.584Z,7.17
2019-03-09T02:13:22.135Z,7.2
2019-03-09T02:14:02.687Z,7.2
2019-03-09T02:14:43.238Z,7.2
2019-03-09T02:15:23.823Z,7.17
2019-03-09T02:16:04.375Z,7.23
2019-03-09T02:16:44.945Z,7.15
2019-03-09T02:17:25.534Z,7.23
2019-03-09T02:18:06.178Z,7.21
2019-03-09T02:18:46.750Z,7.21
2019-03-09T02:19:27.317Z,7.28
2019-03-09T02:20:07.949Z,7.2
2019-03-09T02:20:48.494Z,7.17
2019-03-09T02:21:29.073Z,7.2
2019-03-09T02:22:09.657Z,7.25
2019-03-09T02:22:50.233Z,7.23
2019-03-09T02:23:30.802Z,7.21
2019-03-09T02:24:11.404Z,7.24
2019-03-09T02:24:51.981Z,7.28
2019-03-09T02:25:32.550Z,7.24
2019-03-09T02:26:13.092Z,7.31
2019-03-09T02:26:53.654Z,7.21
2019-03-09T02:27:34.216Z,7.23
2019-03-09T02:28:14.796Z,7.18
2019-03-09T02:28:55.350Z,7.21
2019-03-09T02:29:35.916Z,7.24
2019-03-09T02:30:16.493Z,7.23
2019-03-09T02:30:57.087Z,7.2
2019-03-09T02:31:37.649Z,7.25
2019-03-09T02:32:18.282Z,7.17
2019-03-09T02:32:58.848Z,7.2
2019-03-09T02:33:39.427Z,7.21
2019-03-09T02:34:19.999Z,7.18
2019-03-09T02:35:00.665Z,7.2
2019-03-09T02:35:41.141Z,7.17
2019-03-09T02:36:21.715Z,7.33
2019-03-09T02:37:02.284Z,7.23
2019-03-09T02:37:42.863Z,7.29
2019-03-09T02:38:23.426Z,7.33
2019-03-09T02:39:04.030Z,7.17
2019-03-09T02:39:44.625Z,7.17
2019-03-09T02:40:25.180Z,7.2
2019-03-09T02:41:05.738Z,7.23
2019-03-09T02:41:46.310Z,7.29
2019-03-09T02:42:26.890Z,7.29
2019-03-09T02:43:07.462Z,7.25
2019-03-09T02:43:48.039Z,7.36
2019-03-09T02:44:28.584Z,7.29
2019-03-09T02:45:09.142Z,7.24
2019-03-09T02:45:49.714Z,7.31
2019-03-09T02:46:30.280Z,7.32
2019-03-09T02:47:10.894Z,7.28
2019-03-09T02:47:51.443Z,7.33
2019-03-09T02:48:32.007Z,7.32
2019-03-09T02:49:12.570Z,7.33
2019-03-09T02:49:53.144Z,7.4
2019-03-09T02:50:33.691Z,7.29
2019-03-09T02:51:14.256Z,7.36
2019-03-09T02:51:54.854Z,7.32
2019-03-09T02:52:35.408Z,7.33
2019-03-09T02:53:15.973Z,7.32
2019-03-09T02:53:56.523Z,7.33
2019-03-09T02:54:37.076Z,7.32
2019-03-09T02:55:17.637Z,7.36
2019-03-09T02:55:58.210Z,7.33
2019-03-09T02:56:38.771Z,7.43
2019-03-09T02:57:19.325Z,7.33
2019-03-09T02:57:59.904Z,7.43
2019-03-09T02:58:40.480Z,7.43
2019-03-09T02:59:21.043Z,7.35
2019-03-09T03:00:01.852Z,7.32
2019-03-09T03:00:42.172Z,7.4
2019-03-09T03:01:22.738Z,7.42
2019-03-09T03:02:03.346Z,7.36
2019-03-09T03:02:43.887Z,7.43
2019-03-09T03:03:24.464Z,7.48
2019-03-09T03:04:05.036Z,7.48
2019-03-09T03:04:45.583Z,7.33
2019-03-09T03:05:26.176Z,7.38
2019-03-09T03:06:06.743Z,7.4
2019-03-09T03:06:47.316Z,7.47
2019-03-09T03:07:27.881Z,7.42
2019-03-09T03:08:08.451Z,7.43
2019-03-09T03:08:49.003Z,7.45
2019-03-09T03:09:29.560Z,7.42
2019-03-09T03:10:10.119Z,7.4
2019-03-09T03:10:50.740Z,7.4
2019-03-09T03:11:31.351Z,7.4
2019-03-09T03:12:11.884Z,7.42
2019-03-09T03:12:52.440Z,7.45
2019-03-09T03:13:32.992Z,7.47
2019-03-09T03:14:13.570Z,7.42
2019-03-09T03:14:54.144Z,7.39
2019-03-09T03:15:34.794Z,7.51
2019-03-09T03:16:15.302Z,7.43
2019-03-09T03:16:55.853Z,7.43
2019-03-09T03:17:36.411Z,7.43
2019-03-09T03:18:16.974Z,7.43
2019-03-09T03:18:57.531Z,7.39
2019-03-09T03:19:38.127Z,7.48
2019-03-09T03:20:18.735Z,7.47
2019-03-09T03:20:59.315Z,7.43
2019-03-09T03:21:39.871Z,7.48
2019-03-09T03:22:20.429Z,7.56
2019-03-09T03:23:00.996Z,7.53
2019-03-09T03:23:41.532Z,7.51
2019-03-09T03:24:22.104Z,7.5
2019-03-09T03:25:02.660Z,7.47
2019-03-09T03:25:43.218Z,7.53
2019-03-09T03:26:23.783Z,7.6
2019-03-09T03:27:04.395Z,7.6
2019-03-09T03:27:44.979Z,7.56
2019-03-09T03:28:25.520Z,7.54
2019-03-09T03:29:06.094Z,7.56
2019-03-09T03:29:46.644Z,7.56
2019-03-09T03:30:27.223Z,7.56
2019-03-09T03:31:07.803Z,7.51
2019-03-09T03:31:48.350Z,7.56
2019-03-09T03:32:28.978Z,7.56
2019-03-09T03:33:09.527Z,7.56
2019-03-09T03:33:50.083Z,7.54
2019-03-09T03:34:30.644Z,7.54
2019-03-09T03:35:11.212Z,7.54
2019-03-09T03:35:51.822Z,7.54
2019-03-09T03:36:32.393Z,7.48
2019-03-09T03:37:12.974Z,7.51
2019-03-09T03:37:53.532Z,7.54
2019-03-09T03:38:34.120Z,7.54
2019-03-09T03:39:14.689Z,7.53
2019-03-09T03:39:55.248Z,7.54
2019-03-09T03:40:35.830Z,7.54
2019-03-09T03:41:16.405Z,7.48
2019-03-09T03:41:56.952Z,7.45
2019-03-09T03:42:37.542Z,7.47
2019-03-09T03:43:18.118Z,7.5
2019-03-09T03:43:58.717Z,7.56
2019-03-09T03:44:39.271Z,7.57
2019-03-09T03:45:19.823Z,7.5
2019-03-09T03:46:00.411Z,7.54
2019-03-09T03:46:40.990Z,7.53
2019-03-09T03:47:21.591Z,7.57
2019-03-09T03:48:02.098Z,7.54
2019-03-09T03:48:42.649Z,7.6
2019-03-09T03:49:23.217Z,7.53
2019-03-09T03:50:03.813Z,7.66
2019-03-09T03:50:44.399Z,7.56
2019-03-09T03:51:24.973Z,7.66
2019-03-09T03:52:05.567Z,7.56
2019-03-09T03:52:46.140Z,7.58
2019-03-09T03:53:26.708Z,7.54
2019-03-09T03:54:07.275Z,7.56
2019-03-09T03:54:47.817Z,7.58
2019-03-09T03:55:28.393Z,7.58
2019-03-09T03:56:08.970Z,7.58
2019-03-09T03:56:49.535Z,7.54
2019-03-09T03:57:30.103Z,7.5
2019-03-09T03:58:10.684Z,7.56
2019-03-09T03:58:51.230Z,7.61
2019-03-09T03:59:31.836Z,7.58
2019-03-09T04:00:12.463Z,7.6
2019-03-09T04:00:52.961Z,7.5
2019-03-09T04:01:33.517Z,7.6
2019-03-09T04:02:14.092Z,7.5
2019-03-09T04:02:54.675Z,7.58
2019-03-09T04:03:35.251Z,7.63
2019-03-09T04:04:15.802Z,7.51
2019-03-09T04:04:56.379Z,7.54
2019-03-09T04:05:36.999Z,7.6
2019-03-09T04:06:17.537Z,7.58
2019-03-09T04:06:58.101Z,7.58
2019-03-09T04:07:39.097Z,7.66
2019-03-09T04:08:19.690Z,7.6
2019-03-09T04:09:00.236Z,7.57
2019-03-09T04:09:40.804Z,7.66
2019-03-09T04:10:21.377Z,7.6
2019-03-09T04:11:01.923Z,7.58
2019-03-09T04:11:42.484Z,7.6
2019-03-09T04:12:23.056Z,7.6
2019-03-09T04:13:03.625Z,7.53
2019-03-09T04:13:44.210Z,7.53
2019-03-09T04:14:24.779Z,7.58
2019-03-09T04:15:05.344Z,7.6
2019-03-09T04:15:45.919Z,7.67
2019-03-09T04:16:26.485Z,7.51
2019-03-09T04:17:07.089Z,7.67
2019-03-09T04:17:47.649Z,7.6
2019-03-09T04:18:28.217Z,7.61
2019-03-09T04:19:08.759Z,7.58
2019-03-09T04:19:49.308Z,7.6
2019-03-09T04:20:29.905Z,7.58
2019-03-09T04:21:10.506Z,7.57
2019-03-09T04:21:51.059Z,7.69
2019-03-09T04:22:31.617Z,7.63
2019-03-09T04:23:12.165Z,7.6
2019-03-09T04:23:52.724Z,7.7
2019-03-09T04:24:33.293Z,7.57
2019-03-09T04:25:13.863Z,7.6
2019-03-09T04:25:54.432Z,7.6
2019-03-09T04:26:35.015Z,7.53
2019-03-09T04:27:15.601Z,7.61
2019-03-09T04:27:56.173Z,7.61
2019-03-09T04:28:36.771Z,7.54
2019-03-09T04:29:17.326Z,7.53
2019-03-09T04:29:57.876Z,7.67
2019-03-09T04:30:38.449Z,7.66
2019-03-09T04:31:19.011Z,7.61
2019-03-09T04:31:59.611Z,7.6
2019-03-09T04:32:40.180Z,7.6
2019-03-09T04:33:20.758Z,7.53
2019-03-09T04:34:01.314Z,7.61
2019-03-09T04:34:41.880Z,7.63
2019-03-09T04:35:22.501Z,7.67
2019-03-09T04:36:03.063Z,7.56
2019-03-09T04:36:43.740Z,7.63
2019-03-09T04:37:24.352Z,7.63
2019-03-09T04:38:04.904Z,7.61
2019-03-09T04:38:45.461Z,7.63
2019-03-09T04:39:26.034Z,7.58
2019-03-09T04:40:06.623Z,7.6
2019-03-09T04:40:47.188Z,7.66
2019-03-09T04:41:27.731Z,7.58
2019-03-09T04:42:08.352Z,7.63
2019-03-09T04:42:48.961Z,7.63
2019-03-09T04:43:29.528Z,7.63
2019-03-09T04:44:10.166Z,7.66
2019-03-09T04:44:50.679Z,7.67
2019-03-09T04:45:31.254Z,7.69
2019-03-09T04:46:11.812Z,7.67
2019-03-09T04:46:52.367Z,7.58
2019-03-09T04:47:32.933Z,7.66
2019-03-09T04:48:13.546Z,7.57
2019-03-09T04:48:54.136Z,7.66
2019-03-09T04:49:34.705Z,7.67
2019-03-09T04:50:15.264Z,7.63
2019-03-09T04:50:55.820Z,7.61
2019-03-09T04:51:36.384Z,7.63
2019-03-09T04:52:16.965Z,7.61
2019-03-09T04:52:57.530Z,7.58
2019-03-09T04:53:38.073Z,7.66
2019-03-09T04:54:18.638Z,7.66
2019-03-09T04:54:59.234Z,7.6
2019-03-09T04:55:39.851Z,7.6
2019-03-09T04:56:20.426Z,7.6
2019-03-09T04:57:00.991Z,7.6
2019-03-09T04:57:41.549Z,7.57
2019-03-09T04:58:22.118Z,7.57
2019-03-09T04:59:02.713Z,7.67
2019-03-09T04:59:43.278Z,7.58
2019-03-09T05:00:23.856Z,7.6
2019-03-09T05:01:04.422Z,7.66
2019-03-09T05:01:44.976Z,7.6
2019-03-09T05:02:25.536Z,7.61
2019-03-09T05:03:06.117Z,7.63
2019-03-09T05:03:46.712Z,7.72
2019-03-09T05:04:27.324Z,7.67
2019-03-09T05:05:07.901Z,7.72
2019-03-09T05:05:48.493Z,7.73
2019-03-09T05:06:29.140Z,7.7
2019-03-09T05:07:09.694Z,7.72
2019-03-09T05:07:50.279Z,7.72
2019-03-09T05:08:30.890Z,7.75
2019-03-09T05:09:11.514Z,7.76
2019-03-09T05:09:52.104Z,7.7
2019-03-09T05:10:32.639Z,7.75
2019-03-09T05:11:13.220Z,7.73
2019-03-09T05:11:53.783Z,7.82
2019-03-09T05:12:34.356Z,7.73
2019-03-09T05:13:14.963Z,7.72
2019-03-09T05:13:55.525Z,7.67
2019-03-09T05:14:36.076Z,7.69
2019-03-09T05:15:16.665Z,7.58
2019-03-09T05:15:57.262Z,7.67
2019-03-09T05:16:37.846Z,7.66
2019-03-09T05:17:18.427Z,7.57
2019-03-09T05:17:59.010Z,7.6
2019-03-09T05:18:39.594Z,7.66
2019-03-09T05:19:20.228Z,7.57
2019-03-09T05:20:00.803Z,7.63
2019-03-09T05:20:41.365Z,7.58
2019-03-09T05:21:21.967Z,7.58
2019-03-09T05:22:02.533Z,7.57
2019-03-09T05:22:43.127Z,7.58
2019-03-09T05:23:23.685Z,7.63
2019-03-09T05:24:04.246Z,7.61
2019-03-09T05:24:44.808Z,7.57
2019-03-09T05:25:25.407Z,7.56
2019-03-09T05:26:06.021Z,7.54
2019-03-09T05:26:46.583Z,7.51
2019-03-09T05:27:27.150Z,7.56
2019-03-09T05:28:07.716Z,7.53
2019-03-09T05:28:48.312Z,7.54
2019-03-09T05:29:28.886Z,7.51
2019-03-09T05:30:09.492Z,7.57
2019-03-09T05:30:50.095Z,7.58
2019-03-09T05:31:30.657Z,7.53
2019-03-09T05:32:11.243Z,7.66
2019-03-09T05:32:51.884Z,7.57
2019-03-09T05:33:32.451Z,7.61
2019-03-09T05:34:13.029Z,7.6
2019-03-09T05:34:53.591Z,7.56
2019-03-09T05:35:34.205Z,7.66
2019-03-09T05:36:14.763Z,7.61
2019-03-09T05:36:55.335Z,7.56
2019-03-09T05:37:42.790Z,7.67
2019-03-09T05:38:16.464Z,7.66
2019-03-09T05:38:57.057Z,7.63
2019-03-09T05:39:37.615Z,7.57
2019-03-09T05:40:18.194Z,7.58
2019-03-09T05:40:58.758Z,7.5
2019-03-09T05:41:39.320Z,7.45
2019-03-09T05:42:19.874Z,7.56
2019-03-09T05:43:00.444Z,7.56
2019-03-09T05:43:41.029Z,7.57
2019-03-09T05:44:21.645Z,7.56
2019-03-09T05:45:02.217Z,7.57
2019-03-09T05:45:42.803Z,7.56
2019-03-09T05:46:23.360Z,7.5
2019-03-09T05:47:03.944Z,7.54
2019-03-09T05:47:44.492Z,7.47
2019-03-09T05:48:25.055Z,7.45
2019-03-09T05:49:05.630Z,7.48
2019-03-09T05:49:46.217Z,7.4
2019-03-09T05:50:26.774Z,7.43
2019-03-09T05:51:07.330Z,7.45
2019-03-09T05:51:47.886Z,7.43
2019-03-09T05:52:28.461Z,7.43
2019-03-09T05:53:09.042Z,7.42
2019-03-09T05:53:49.624Z,7.51
2019-03-09T05:54:30.184Z,7.45
2019-03-09T05:55:10.745Z,7.42
2019-03-09T05:55:51.338Z,7.42
2019-03-09T05:56:31.936Z,7.43
2019-03-09T05:57:12.495Z,7.42
2019-03-09T05:57:53.052Z,7.35
2019-03-09T05:58:33.600Z,7.32
2019-03-09T05:59:14.165Z,7.43
2019-03-09T05:59:54.696Z,7.32
2019-03-09T06:00:35.251Z,7.42
2019-03-09T06:01:15.839Z,7.42
2019-03-09T06:01:56.412Z,7.35
2019-03-09T06:02:37.002Z,7.4
2019-03-09T06:03:17.575Z,7.33
2019-03-09T06:04:00.131Z,7.35
2019-03-09T06:04:38.808Z,7.33
2019-03-09T06:05:19.408Z,7.38
2019-03-09T06:05:59.949Z,7.36
2019-03-09T06:06:40.532Z,7.36
2019-03-09T06:07:21.553Z,7.28
2019-03-09T06:08:02.145Z,7.25
2019-03-09T06:08:42.713Z,7.25
2019-03-09T06:09:23.277Z,7.28
2019-03-09T06:10:03.855Z,7.18
2019-03-09T06:10:44.424Z,7.25
2019-03-09T06:11:24.981Z,7.17
2019-03-09T06:12:05.553Z,7.23
2019-03-09T06:12:46.134Z,7.23
2019-03-09T06:13:26.724Z,7.23
2019-03-09T06:14:07.278Z,7.18
2019-03-09T06:14:47.841Z,7.28
2019-03-09T06:15:28.389Z,7.15
2019-03-09T06:16:08.971Z,7.2
2019-03-09T06:16:49.537Z,7.24
2019-03-09T06:17:30.148Z,7.23
2019-03-09T06:18:10.714Z,7.17
2019-03-09T06:18:51.277Z,7.2
2019-03-09T06:19:31.877Z,7.2
2019-03-09T06:20:12.441Z,7.15
2019-03-09T06:20:53.013Z,7.13
2019-03-09T06:21:33.581Z,7.13
2019-03-09T06:22:14.153Z,7.2
2019-03-09T06:22:54.872Z,7.11
2019-03-09T06:23:35.308Z,7.13
2019-03-09T06:24:15.865Z,7.05
2019-03-09T06:24:56.463Z,7.07
2019-03-09T06:25:38.602Z,7.03
2019-03-09T06:26:17.611Z,7.11
2019-03-09T06:26:58.165Z,7.11
2019-03-09T06:27:38.738Z,7.05
2019-03-09T06:28:19.309Z,7.06
2019-03-09T06:28:59.911Z,7.05
2019-03-09T06:29:40.451Z,7.1
2019-03-09T06:30:21.018Z,7.07
2019-03-09T06:31:01.562Z,7.06
2019-03-09T06:31:42.112Z,7.07
2019-03-09T06:32:22.679Z,7.06
2019-03-09T06:33:03.235Z,7.06
2019-03-09T06:33:43.865Z,7.05
2019-03-09T06:34:24.413Z,7.03
2019-03-09T06:35:04.960Z,7.14
2019-03-09T06:35:45.556Z,7.14
2019-03-09T06:36:26.110Z,7.11
2019-03-09T06:37:06.660Z,7.03
2019-03-09T06:37:47.253Z,7.1
2019-03-09T06:38:27.817Z,7.07
2019-03-09T06:39:08.374Z,7
2019-03-09T06:39:48.996Z,7.03
2019-03-09T06:40:30.145Z,7.03
2019-03-09T06:41:10.773Z,7.13
2019-03-09T06:41:51.354Z,7.05
2019-03-09T06:42:31.937Z,7.03
2019-03-09T06:43:12.506Z,7.07
2019-03-09T06:43:53.212Z,7.03
2019-03-09T06:44:33.892Z,7.03
2019-03-09T06:45:14.539Z,7.07
2019-03-09T06:45:55.142Z,6.93
2019-03-09T06:46:35.730Z,6.97
2019-03-09T06:47:16.284Z,6.96
2019-03-09T06:47:56.911Z,6.95
2019-03-09T06:48:37.491Z,6.92
2019-03-09T06:49:18.057Z,6.99
2019-03-09T06:49:58.639Z,7.02
2019-03-09T06:50:39.197Z,6.96
2019-03-09T06:51:19.769Z,6.92
2019-03-09T06:52:00.332Z,7.02
2019-03-09T06:52:40.901Z,6.96
2019-03-09T06:53:21.471Z,7
2019-03-09T06:54:02.055Z,6.88
2019-03-09T06:54:42.628Z,7.02
2019-03-09T06:55:23.232Z,7
2019-03-09T06:56:03.784Z,6.95
2019-03-09T06:56:44.361Z,6.95
2019-03-09T06:57:24.921Z,6.89
2019-03-09T06:58:05.507Z,6.93
2019-03-09T06:58:46.087Z,6.85
2019-03-09T06:59:26.659Z,6.89
2019-03-09T07:00:07.258Z,6.95
2019-03-09T07:00:47.822Z,6.88
2019-03-09T07:01:28.422Z,6.85
2019-03-09T07:02:08.975Z,6.93
2019-03-09T07:02:49.541Z,6.87
2019-03-09T07:03:30.133Z,6.84
2019-03-09T07:04:10.703Z,6.85
2019-03-09T07:04:51.277Z,6.85
2019-03-09T07:05:31.849Z,6.87
2019-03-09T07:06:12.438Z,6.88
2019-03-09T07:06:53.019Z,6.84
2019-03-09T07:07:33.582Z,6.79
2019-03-09T07:08:14.135Z,6.84
2019-03-09T07:08:54.683Z,6.92
2019-03-09T07:09:35.257Z,6.84
2019-03-09T07:10:15.889Z,6.88
2019-03-09T07:10:56.473Z,6.87
2019-03-09T07:11:37.041Z,6.92
2019-03-09T07:12:17.599Z,6.84
2019-03-09T07:12:58.178Z,6.78
2019-03-09T07:13:38.739Z,6.79
2019-03-09T07:14:19.312Z,6.88
2019-03-09T07:14:59.886Z,6.84
2019-03-09T07:15:40.468Z,6.88
2019-03-09T07:16:21.026Z,6.85
2019-03-09T07:17:01.610Z,6.88
2019-03-09T07:17:43.136Z,6.82
2019-03-09T07:18:22.723Z,6.87
2019-03-09T07:19:03.323Z,6.89
2019-03-09T07:19:43.871Z,6.84
2019-03-09T07:20:24.421Z,6.87
2019-03-09T07:21:05.006Z,6.82
2019-03-09T07:21:45.592Z,6.87
2019-03-09T07:22:26.178Z,6.89
2019-03-09T07:23:06.756Z,6.87
2019-03-09T07:23:47.318Z,6.88
2019-03-09T07:24:27.905Z,6.92
2019-03-09T07:25:08.456Z,6.88
2019-03-09T07:25:49.022Z,6.92
2019-03-09T07:26:29.594Z,6.96
2019-03-09T07:27:10.244Z,6.93
2019-03-09T07:27:50.889Z,6.93
2019-03-09T07:28:31.421Z,7.02
2019-03-09T07:29:11.980Z,6.97
2019-03-09T07:29:52.548Z,7
2019-03-09T07:30:33.182Z,7.05
2019-03-09T07:31:13.741Z,7
2019-03-09T07:31:54.306Z,6.97
2019-03-09T07:32:34.862Z,7
2019-03-09T07:33:15.449Z,6.95
2019-03-09T07:33:56.034Z,7
2019-03-09T07:34:36.588Z,6.99
2019-03-09T07:35:17.159Z,7.03
2019-03-09T07:35:57.714Z,7.03
2019-03-09T07:36:38.297Z,7.06
2019-03-09T07:37:18.864Z,7.03
2019-03-09T07:37:59.995Z,7.13
2019-03-09T07:38:40.543Z,7.13
2019-03-09T07:39:21.690Z,7.11
2019-03-09T07:40:02.264Z,7.14
2019-03-09T07:40:42.852Z,7.11
2019-03-09T07:41:23.429Z,7.13
2019-03-09T07:42:03.988Z,7.14
2019-03-09T07:42:44.558Z,7.18
2019-03-09T07:43:25.123Z,7.13
2019-03-09T07:44:05.685Z,7.13
2019-03-09T07:44:46.248Z,7.18
2019-03-09T07:45:26.894Z,7.14
2019-03-09T07:46:07.472Z,7.18
2019-03-09T07:46:48.065Z,7.14
2019-03-09T07:47:28.654Z,7.14
2019-03-09T07:48:09.225Z,7.23
2019-03-09T07:48:49.789Z,7.23
2019-03-09T07:49:30.345Z,7.18
2019-03-09T07:50:10.943Z,7.18
2019-03-09T07:50:51.637Z,7.21
2019-03-09T07:51:32.231Z,7.25
2019-03-09T07:52:12.873Z,7.2
2019-03-09T07:52:53.428Z,7.24
2019-03-09T07:53:33.992Z,7.2
2019-03-09T07:54:14.594Z,7.18
2019-03-09T07:54:55.139Z,7.17
2019-03-09T07:55:35.709Z,7.23
2019-03-09T07:56:16.286Z,7.29
2019-03-09T07:56:56.887Z,7.29
2019-03-09T07:57:37.488Z,7.23
2019-03-09T07:58:18.063Z,7.29
2019-03-09T07:58:59.127Z,7.36
2019-03-09T07:59:40.248Z,7.28
2019-03-09T08:00:21.532Z,7.32
2019-03-09T08:01:02.433Z,7.29
2019-03-09T08:01:43.026Z,7.29
2019-03-09T08:02:23.594Z,7.36
2019-03-09T08:03:04.200Z,7.33
2019-03-09T08:03:44.754Z,7.47
2019-03-09T08:04:25.352Z,7.38
2019-03-09T08:05:05.965Z,7.43
2019-03-09T08:05:46.531Z,7.4
2019-03-09T08:06:27.083Z,7.43
2019-03-09T08:07:07.656Z,7.4
2019-03-09T08:07:48.263Z,7.45
2019-03-09T08:08:28.855Z,7.47
2019-03-09T08:09:09.428Z,7.54
2019-03-09T08:09:49.981Z,7.5
2019-03-09T08:10:30.584Z,7.5
2019-03-09T08:11:11.345Z,7.56
2019-03-09T08:11:51.926Z,7.51
2019-03-09T08:12:32.523Z,7.51
2019-03-09T08:13:13.087Z,7.53
2019-03-09T08:13:53.680Z,7.58
2019-03-09T08:14:34.261Z,7.54
2019-03-09T08:15:14.798Z,7.63
2019-03-09T08:15:55.369Z,7.58
2019-03-09T08:16:36.180Z,7.58
2019-03-09T08:17:16.508Z,7.6
2019-03-09T08:17:57.060Z,7.63
2019-03-09T08:18:37.649Z,7.61
2019-03-09T08:19:18.198Z,7.69
2019-03-09T08:19:58.763Z,7.72
2019-03-09T08:20:39.324Z,7.73
2019-03-09T08:21:19.892Z,7.7
2019-03-09T08:22:00.452Z,7.75
2019-03-09T08:22:41.006Z,7.76
2019-03-09T08:23:21.609Z,7.66
2019-03-09T08:24:02.283Z,7.77
2019-03-09T08:24:42.864Z,7.76
2019-03-09T08:25:23.456Z,7.93
2019-03-09T08:26:04.011Z,7.85
2019-03-09T08:26:44.619Z,7.9
2019-03-09T08:27:25.234Z,7.94
2019-03-09T08:28:05.849Z,8.06
2019-03-09T08:28:46.383Z,8.03
2019-03-09T08:29:26.938Z,8.06
2019-03-09T08:30:07.666Z,8.06
2019-03-09T08:30:48.307Z,8.09
2019-03-09T08:31:28.877Z,8.1
2019-03-09T08:32:09.453Z,7.98
2019-03-09T08:32:50.015Z,7.94
2019-03-09T08:33:30.964Z,8.01
2019-03-09T08:34:11.204Z,8.05
2019-03-09T08:34:51.746Z,8.08
2019-03-09T08:35:32.359Z,8.03
2019-03-09T08:36:12.947Z,8
2019-03-09T08:36:53.503Z,8.03
2019-03-09T08:37:34.075Z,7.91
2019-03-09T08:38:14.647Z,7.93
2019-03-09T08:38:55.281Z,7.97
2019-03-09T08:39:35.828Z,7.95
2019-03-09T08:40:16.415Z,8.05
2019-03-09T08:40:56.947Z,8.03
2019-03-09T08:41:37.560Z,8.05
2019-03-09T08:42:18.175Z,8.05
2019-03-09T08:42:58.784Z,8.03
2019-03-09T08:43:39.369Z,8.15
2019-03-09T08:44:19.919Z,8.15
2019-03-09T08:45:00.468Z,8.13
2019-03-09T08:45:41.073Z,8.13
2019-03-09T08:46:21.623Z,8.13
2019-03-09T08:47:02.185Z,8.18
2019-03-09T08:47:51.506Z,8.18
2019-03-09T08:48:23.359Z,8.16
2019-03-09T08:49:03.989Z,8.19
2019-03-09T08:49:44.544Z,8.19
2019-03-09T08:50:25.129Z,8.19
2019-03-09T08:51:05.712Z,8.23
2019-03-09T08:51:46.269Z,8.24
2019-03-09T08:52:26.860Z,8.26
2019-03-09T08:53:07.493Z,8.27
2019-03-09T08:53:48.064Z,8.24
2019-03-09T08:54:28.628Z,8.24
2019-03-09T08:55:09.205Z,8.3
2019-03-09T08:55:49.780Z,8.28
2019-03-09T08:56:30.354Z,8.3
2019-03-09T08:57:10.936Z,8.33
2019-03-09T08:57:51.704Z,8.36
2019-03-09T08:58:33.224Z,8.28
2019-03-09T08:59:13.810Z,8.3
2019-03-09T08:59:54.597Z,8.23
2019-03-09T09:00:35.329Z,8.3
2019-03-09T09:01:16.851Z,8.23
2019-03-09T09:01:57.472Z,8.33
2019-03-09T09:02:38.147Z,8.34
2019-03-09T09:03:18.767Z,8.37